Terminal Aerodrome Forecast
Issued by NWS

Home | Current Version | Previous Version | Text Only | Print | Product List | Glossary On
Versions: 1 2 3 4 5 6 7 8 9 10 11 12
000
FTAK31 PANC 231123
TAFAHO
TAF
PAHO 231123Z 2312/2412 08012KT P6SM VCSH BKN050
     FM231700 09014G20KT 3SM -SN OVC020
     FM232000 24008KT 5SM -SN SCT030 BKN045
     FM240100 22005KT P6SM SCT045 BKN070
     FM240600 16005KT 5SM -SHSN BR BKN030 OVC050=

USA.gov is the U.S. government's official web portal to all federal, state and local government web resources and services.